sensor_id;sensor_type;location;lat;lon;timestamp;temperature;humidity
6822;DHT22;3449;48.728;8.968;2022-09-03T00:02:08;16.80;99.90
6822;DHT22;3449;48.728;8.968;2022-09-03T00:04:43;16.80;99.90
6822;DHT22;3449;48.728;8.968;2022-09-03T00:07:18;16.80;99.90
6822;DHT22;3449;48.728;8.968;2022-09-03T00:09:49;16.80;99.90
6822;DHT22;3449;48.728;8.968;2022-09-03T00:12:20;16.80;99.90
6822;DHT22;3449;48.728;8.968;2022-09-03T00:14:52;16.80;99.90
6822;DHT22;3449;48.728;8.968;2022-09-03T00:17:26;16.80;99.90
6822;DHT22;3449;48.728;8.968;2022-09-03T00:19:58;16.80;99.90
6822;DHT22;3449;48.728;8.968;2022-09-03T00:22:28;16.80;99.90
6822;DHT22;3449;48.728;8.968;2022-09-03T00:24:58;16.80;99.90
6822;DHT22;3449;48.728;8.968;2022-09-03T00:27:27;16.80;99.90
6822;DHT22;3449;48.728;8.968;2022-09-03T00:29:59;16.80;99.90
6822;DHT22;3449;48.728;8.968;2022-09-03T00:32:38;16.80;99.90
6822;DHT22;3449;48.728;8.968;2022-09-03T00:35:15;16.80;99.90
6822;DHT22;3449;48.728;8.968;2022-09-03T00:37:43;16.80;99.90
6822;DHT22;3449;48.728;8.968;2022-09-03T00:40:19;16.80;99.90
6822;DHT22;3449;48.728;8.968;2022-09-03T00:42:51;16.80;99.90
6822;DHT22;3449;48.728;8.968;2022-09-03T00:45:27;16.80;99.90
6822;DHT22;3449;48.728;8.968;2022-09-03T00:48:07;16.80;99.90
6822;DHT22;3449;48.728;8.968;2022-09-03T00:50:47;16.80;99.90
6822;DHT22;3449;48.728;8.968;2022-09-03T00:53:21;16.80;99.90
6822;DHT22;3449;48.728;8.968;2022-09-03T00:55:59;16.80;99.90
6822;DHT22;3449;48.728;8.968;2022-09-03T00:58:48;16.70;99.90
6822;DHT22;3449;48.728;8.968;2022-09-03T01:01:23;16.70;99.90
6822;DHT22;3449;48.728;8.968;2022-09-03T01:04:03;16.70;99.90
6822;DHT22;3449;48.728;8.968;2022-09-03T01:06:40;16.70;99.90
6822;DHT22;3449;48.728;8.968;2022-09-03T01:09:21;16.60;99.90
6822;DHT22;3449;48.728;8.968;2022-09-03T01:11:56;16.60;99.90
6822;DHT22;3449;48.728;8.968;2022-09-03T01:14:38;16.60;99.90
6822;DHT22;3449;48.728;8.968;2022-09-03T01:17:15;16.60;99.90
6822;DHT22;3449;48.728;8.968;2022-09-03T01:20:01;16.60;99.90
6822;DHT22;3449;48.728;8.968;2022-09-03T01:23:12;16.60;99.90
6822;DHT22;3449;48.728;8.968;2022-09-03T01:25:59;16.60;99.90
6822;DHT22;3449;48.728;8.968;2022-09-03T01:28:41;16.50;99.90
6822;DHT22;3449;48.728;8.968;2022-09-03T01:31:17;16.60;99.90
6822;DHT22;3449;48.728;8.968;2022-09-03T01:33:55;16.60;99.90
6822;DHT22;3449;48.728;8.968;2022-09-03T01:36:29;16.60;99.90
6822;DHT22;3449;48.728;8.968;2022-09-03T01:39:01;16.50;99.90
6822;DHT22;3449;48.728;8.968;2022-09-03T01:41:40;16.60;99.90
6822;DHT22;3449;48.728;8.968;2022-09-03T01:44:38;16.50;99.90
6822;DHT22;3449;48.728;8.968;2022-09-03T01:47:14;16.50;99.90
6822;DHT22;3449;48.728;8.968;2022-09-03T01:49:48;16.40;99.90
6822;DHT22;3449;48.728;8.968;2022-09-03T01:52:34;16.40;99.90
6822;DHT22;3449;48.728;8.968;2022-09-03T01:55:12;16.40;99.90
6822;DHT22;3449;48.728;8.968;2022-09-03T01:57:46;16.40;99.90
6822;DHT22;3449;48.728;8.968;2022-09-03T02:00:16;16.40;99.90
6822;DHT22;3449;48.728;8.968;2022-09-03T02:02:46;16.40;99.90
6822;DHT22;3449;48.728;8.968;2022-09-03T02:05:16;16.40;99.90
6822;DHT22;3449;48.728;8.968;2022-09-03T02:07:46;16.40;99.90
6822;DHT22;3449;48.728;8.968;2022-09-03T02:10:15;16.30;99.90
6822;DHT22;3449;48.728;8.968;2022-09-03T02:12:45;16.30;99.90
6822;DHT22;3449;48.728;8.968;2022-09-03T02:15:16;16.30;99.90
6822;DHT22;3449;48.728;8.968;2022-09-03T02:17:46;16.30;99.90
6822;DHT22;3449;48.728;8.968;2022-09-03T02:20:18;16.20;99.90
6822;DHT22;3449;48.728;8.968;2022-09-03T02:22:47;16.20;99.90
6822;DHT22;3449;48.728;8.968;2022-09-03T02:25:14;16.20;99.90
6822;DHT22;3449;48.728;8.968;2022-09-03T02:27:42;16.20;99.90
6822;DHT22;3449;48.728;8.968;2022-09-03T02:30:10;16.20;99.90
6822;DHT22;3449;48.728;8.968;2022-09-03T02:32:38;16.10;99.90
6822;DHT22;3449;48.728;8.968;2022-09-03T02:35:06;16.10;99.90
6822;DHT22;3449;48.728;8.968;2022-09-03T02:37:33;16.10;99.90
6822;DHT22;3449;48.728;8.968;2022-09-03T02:40:00;16.00;99.90
6822;DHT22;3449;48.728;8.968;2022-09-03T02:42:31;16.10;99.90
6822;DHT22;3449;48.728;8.968;2022-09-03T02:45:05;16.00;99.90
6822;DHT22;3449;48.728;8.968;2022-09-03T02:47:35;16.00;99.90
6822;DHT22;3449;48.728;8.968;2022-09-03T02:50:06;16.00;99.90
6822;DHT22;3449;48.728;8.968;2022-09-03T02:52:33;16.00;99.90
6822;DHT22;3449;48.728;8.968;2022-09-03T02:55:00;16.00;99.90
6822;DHT22;3449;48.728;8.968;2022-09-03T02:57:27;15.90;99.90
6822;DHT22;3449;48.728;8.968;2022-09-03T02:59:54;15.90;99.90
6822;DHT22;3449;48.728;8.968;2022-09-03T03:02:21;15.90;99.90
6822;DHT22;3449;48.728;8.968;2022-09-03T03:04:48;15.90;99.90
6822;DHT22;3449;48.728;8.968;2022-09-03T03:07:16;15.90;99.90
6822;DHT22;3449;48.728;8.968;2022-09-03T03:09:43;15.90;99.90
6822;DHT22;3449;48.728;8.968;2022-09-03T03:12:10;15.80;99.90
6822;DHT22;3449;48.728;8.968;2022-09-03T03:14:37;15.80;99.90
6822;DHT22;3449;48.728;8.968;2022-09-03T03:17:04;15.80;99.90
6822;DHT22;3449;48.728;8.968;2022-09-03T03:19:31;15.80;99.90
6822;DHT22;3449;48.728;8.968;2022-09-03T03:21:57;15.80;99.90
6822;DHT22;3449;48.728;8.968;2022-09-03T03:24:26;15.80;99.90
6822;DHT22;3449;48.728;8.968;2022-09-03T03:26:55;15.80;99.90
6822;DHT22;3449;48.728;8.968;2022-09-03T03:29:23;15.80;99.90
6822;DHT22;3449;48.728;8.968;2022-09-03T03:31:51;15.80;99.90
6822;DHT22;3449;48.728;8.968;2022-09-03T03:34:18;15.80;99.90
6822;DHT22;3449;48.728;8.968;2022-09-03T03:36:45;15.80;99.90
6822;DHT22;3449;48.728;8.968;2022-09-03T03:39:12;15.80;99.90
6822;DHT22;3449;48.728;8.968;2022-09-03T03:41:40;15.70;99.90
6822;DHT22;3449;48.728;8.968;2022-09-03T03:44:07;15.70;99.90
6822;DHT22;3449;48.728;8.968;2022-09-03T03:46:36;15.70;99.90
6822;DHT22;3449;48.728;8.968;2022-09-03T03:49:03;15.70;99.90
6822;DHT22;3449;48.728;8.968;2022-09-03T03:51:32;15.70;99.90
6822;DHT22;3449;48.728;8.968;2022-09-03T03:53:59;15.70;99.90
6822;DHT22;3449;48.728;8.968;2022-09-03T03:56:26;15.80;99.90
6822;DHT22;3449;48.728;8.968;2022-09-03T03:58:54;15.80;99.90
6822;DHT22;3449;48.728;8.968;2022-09-03T04:01:23;15.80;99.90
6822;DHT22;3449;48.728;8.968;2022-09-03T04:03:50;15.70;99.90
6822;DHT22;3449;48.728;8.968;2022-09-03T04:06:19;15.70;99.90
6822;DHT22;3449;48.728;8.968;2022-09-03T04:08:47;15.70;99.90
6822;DHT22;3449;48.728;8.968;2022-09-03T04:11:16;15.70;99.90
6822;DHT22;3449;48.728;8.968;2022-09-03T04:13:44;15.80;99.90
6822;DHT22;3449;48.728;8.968;2022-09-03T04:16:13;15.80;99.90
6822;DHT22;3449;48.728;8.968;2022-09-03T04:18:41;15.70;99.90
6822;DHT22;3449;48.728;8.968;2022-09-03T04:21:10;15.80;99.90
6822;DHT22;3449;48.728;8.968;2022-09-03T04:23:39;15.80;99.90
6822;DHT22;3449;48.728;8.968;2022-09-03T04:26:07;15.80;99.90
6822;DHT22;3449;48.728;8.968;2022-09-03T04:28:34;15.80;99.90
6822;DHT22;3449;48.728;8.968;2022-09-03T04:31:05;15.80;99.90
6822;DHT22;3449;48.728;8.968;2022-09-03T04:33:34;15.80;99.90
6822;DHT22;3449;48.728;8.968;2022-09-03T04:36:07;15.90;99.90
6822;DHT22;3449;48.728;8.968;2022-09-03T04:38:36;15.80;99.90
6822;DHT22;3449;48.728;8.968;2022-09-03T04:41:03;15.80;99.90
6822;DHT22;3449;48.728;8.968;2022-09-03T04:43:31;15.80;99.90
6822;DHT22;3449;48.728;8.968;2022-09-03T04:45:58;15.90;99.90
6822;DHT22;3449;48.728;8.968;2022-09-03T04:48:26;15.90;99.90
6822;DHT22;3449;48.728;8.968;2022-09-03T04:51:01;15.80;99.90
6822;DHT22;3449;48.728;8.968;2022-09-03T04:53:30;15.80;99.90
6822;DHT22;3449;48.728;8.968;2022-09-03T04:55:57;15.80;99.90
6822;DHT22;3449;48.728;8.968;2022-09-03T04:58:24;15.90;99.90
6822;DHT22;3449;48.728;8.968;2022-09-03T05:00:51;15.90;99.90
6822;DHT22;3449;48.728;8.968;2022-09-03T05:03:18;15.90;99.90
6822;DHT22;3449;48.728;8.968;2022-09-03T05:05:52;15.90;99.90
6822;DHT22;3449;48.728;8.968;2022-09-03T05:08:20;15.90;99.90
6822;DHT22;3449;48.728;8.968;2022-09-03T05:10:47;15.90;99.90
6822;DHT22;3449;48.728;8.968;2022-09-03T05:13:14;15.90;99.90
6822;DHT22;3449;48.728;8.968;2022-09-03T05:15:42;15.90;99.90
6822;DHT22;3449;48.728;8.968;2022-09-03T05:18:10;15.90;99.90
6822;DHT22;3449;48.728;8.968;2022-09-03T05:20:37;15.90;99.90
6822;DHT22;3449;48.728;8.968;2022-09-03T05:23:04;15.90;99.90
6822;DHT22;3449;48.728;8.968;2022-09-03T05:25:33;15.90;99.90
6822;DHT22;3449;48.728;8.968;2022-09-03T05:28:03;16.00;99.90
6822;DHT22;3449;48.728;8.968;2022-09-03T05:30:30;16.00;99.90
6822;DHT22;3449;48.728;8.968;2022-09-03T05:32:56;16.00;99.90
6822;DHT22;3449;48.728;8.968;2022-09-03T05:35:23;16.00;99.90
6822;DHT22;3449;48.728;8.968;2022-09-03T05:37:53;16.10;99.90
6822;DHT22;3449;48.728;8.968;2022-09-03T05:40:20;16.10;99.90
6822;DHT22;3449;48.728;8.968;2022-09-03T05:42:54;16.20;99.90
6822;DHT22;3449;48.728;8.968;2022-09-03T05:45:22;16.20;99.90
6822;DHT22;3449;48.728;8.968;2022-09-03T05:47:49;16.20;99.90
6822;DHT22;3449;48.728;8.968;2022-09-03T05:50:16;16.20;99.90
6822;DHT22;3449;48.728;8.968;2022-09-03T05:52:43;16.20;99.90
6822;DHT22;3449;48.728;8.968;2022-09-03T05:55:10;16.20;99.90
6822;DHT22;3449;48.728;8.968;2022-09-03T05:57:36;16.30;99.90
6822;DHT22;3449;48.728;8.968;2022-09-03T06:00:06;16.30;99.90
6822;DHT22;3449;48.728;8.968;2022-09-03T06:02:34;16.30;99.90
6822;DHT22;3449;48.728;8.968;2022-09-03T06:05:01;16.40;99.90
6822;DHT22;3449;48.728;8.968;2022-09-03T06:07:27;16.40;99.90
6822;DHT22;3449;48.728;8.968;2022-09-03T06:09:54;16.50;99.90
6822;DHT22;3449;48.728;8.968;2022-09-03T06:12:21;16.50;99.90
6822;DHT22;3449;48.728;8.968;2022-09-03T06:14:48;16.60;99.90
6822;DHT22;3449;48.728;8.968;2022-09-03T06:17:16;16.70;99.90
6822;DHT22;3449;48.728;8.968;2022-09-03T06:19:43;16.80;99.90
6822;DHT22;3449;48.728;8.968;2022-09-03T06:22:10;16.90;99.90
6822;DHT22;3449;48.728;8.968;2022-09-03T06:24:37;17.00;99.90
6822;DHT22;3449;48.728;8.968;2022-09-03T06:27:04;17.00;99.90
6822;DHT22;3449;48.728;8.968;2022-09-03T06:29:32;17.10;99.90
6822;DHT22;3449;48.728;8.968;2022-09-03T06:32:00;17.10;99.90
6822;DHT22;3449;48.728;8.968;2022-09-03T06:34:30;17.10;99.90
6822;DHT22;3449;48.728;8.968;2022-09-03T06:36:57;17.10;99.90
6822;DHT22;3449;48.728;8.968;2022-09-03T06:39:24;17.10;99.90
6822;DHT22;3449;48.728;8.968;2022-09-03T06:41:51;17.20;99.90
6822;DHT22;3449;48.728;8.968;2022-09-03T06:44:19;17.20;99.90
6822;DHT22;3449;48.728;8.968;2022-09-03T06:46:46;17.30;99.90
6822;DHT22;3449;48.728;8.968;2022-09-03T06:49:14;17.30;99.90
6822;DHT22;3449;48.728;8.968;2022-09-03T06:51:43;17.30;99.90
6822;DHT22;3449;48.728;8.968;2022-09-03T06:54:11;17.40;99.90
6822;DHT22;3449;48.728;8.968;2022-09-03T06:56:39;17.50;99.90
6822;DHT22;3449;48.728;8.968;2022-09-03T06:59:07;17.60;99.90
6822;DHT22;3449;48.728;8.968;2022-09-03T07:01:35;17.70;99.90
6822;DHT22;3449;48.728;8.968;2022-09-03T07:04:06;17.70;99.90
6822;DHT22;3449;48.728;8.968;2022-09-03T07:06:35;17.80;99.90
6822;DHT22;3449;48.728;8.968;2022-09-03T07:09:05;17.90;99.90
6822;DHT22;3449;48.728;8.968;2022-09-03T07:11:32;18.00;99.90
6822;DHT22;3449;48.728;8.968;2022-09-03T07:14:01;18.20;99.90
6822;DHT22;3449;48.728;8.968;2022-09-03T07:16:31;18.50;99.90
6822;DHT22;3449;48.728;8.968;2022-09-03T07:18:58;18.70;99.90
6822;DHT22;3449;48.728;8.968;2022-09-03T07:21:29;18.90;99.90
6822;DHT22;3449;48.728;8.968;2022-09-03T07:23:56;19.00;99.90
6822;DHT22;3449;48.728;8.968;2022-09-03T07:26:27;19.20;99.90
6822;DHT22;3449;48.728;8.968;2022-09-03T07:28:55;19.20;99.90
6822;DHT22;3449;48.728;8.968;2022-09-03T07:31:25;19.10;99.90
6822;DHT22;3449;48.728;8.968;2022-09-03T07:33:53;19.20;99.90
6822;DHT22;3449;48.728;8.968;2022-09-03T07:36:22;19.20;99.90
6822;DHT22;3449;48.728;8.968;2022-09-03T07:38:50;19.30;99.90
6822;DHT22;3449;48.728;8.968;2022-09-03T07:41:16;19.20;99.90
6822;DHT22;3449;48.728;8.968;2022-09-03T07:43:45;19.10;99.90
6822;DHT22;3449;48.728;8.968;2022-09-03T07:46:13;19.00;99.90
6822;DHT22;3449;48.728;8.968;2022-09-03T07:48:46;18.90;99.90
6822;DHT22;3449;48.728;8.968;2022-09-03T07:51:14;19.00;99.90
6822;DHT22;3449;48.728;8.968;2022-09-03T07:53:42;19.20;99.90
6822;DHT22;3449;48.728;8.968;2022-09-03T07:56:10;19.30;99.90
6822;DHT22;3449;48.728;8.968;2022-09-03T07:58:38;19.40;99.90
6822;DHT22;3449;48.728;8.968;2022-09-03T08:01:09;19.60;99.90
6822;DHT22;3449;48.728;8.968;2022-09-03T08:03:37;19.90;99.90
6822;DHT22;3449;48.728;8.968;2022-09-03T08:06:05;20.20;99.90
6822;DHT22;3449;48.728;8.968;2022-09-03T08:08:41;20.50;99.90
6822;DHT22;3449;48.728;8.968;2022-09-03T08:11:11;20.40;99.90
6822;DHT22;3449;48.728;8.968;2022-09-03T08:13:39;20.30;99.90
6822;DHT22;3449;48.728;8.968;2022-09-03T08:16:10;20.40;99.90
6822;DHT22;3449;48.728;8.968;2022-09-03T08:18:38;20.50;99.90
6822;DHT22;3449;48.728;8.968;2022-09-03T08:21:07;20.60;99.90
6822;DHT22;3449;48.728;8.968;2022-09-03T08:23:36;20.50;99.90
6822;DHT22;3449;48.728;8.968;2022-09-03T08:26:04;20.60;99.90
6822;DHT22;3449;48.728;8.968;2022-09-03T08:28:31;20.70;99.90
6822;DHT22;3449;48.728;8.968;2022-09-03T08:31:03;20.70;99.90
6822;DHT22;3449;48.728;8.968;2022-09-03T08:33:31;20.70;99.90
6822;DHT22;3449;48.728;8.968;2022-09-03T08:36:08;20.80;99.90
6822;DHT22;3449;48.728;8.968;2022-09-03T08:38:38;20.90;99.90
6822;DHT22;3449;48.728;8.968;2022-09-03T08:41:08;21.10;99.90
6822;DHT22;3449;48.728;8.968;2022-09-03T08:43:56;21.30;99.90
6822;DHT22;3449;48.728;8.968;2022-09-03T08:46:33;21.60;99.90
6822;DHT22;3449;48.728;8.968;2022-09-03T08:49:02;21.50;99.90
6822;DHT22;3449;48.728;8.968;2022-09-03T08:51:30;21.30;99.90
6822;DHT22;3449;48.728;8.968;2022-09-03T08:54:06;20.90;99.90
6822;DHT22;3449;48.728;8.968;2022-09-03T08:56:38;20.70;99.90
6822;DHT22;3449;48.728;8.968;2022-09-03T08:59:07;20.60;99.90
6822;DHT22;3449;48.728;8.968;2022-09-03T09:01:42;20.60;99.90
6822;DHT22;3449;48.728;8.968;2022-09-03T09:04:21;20.80;99.90
6822;DHT22;3449;48.728;8.968;2022-09-03T09:06:53;20.90;99.90
6822;DHT22;3449;48.728;8.968;2022-09-03T09:09:29;21.00;99.90
6822;DHT22;3449;48.728;8.968;2022-09-03T09:12:03;20.90;99.90
6822;DHT22;3449;48.728;8.968;2022-09-03T09:14:39;21.10;99.90
6822;DHT22;3449;48.728;8.968;2022-09-03T09:17:28;21.30;99.90
6822;DHT22;3449;48.728;8.968;2022-09-03T09:20:04;21.50;99.90
6822;DHT22;3449;48.728;8.968;2022-09-03T09:22:37;21.50;99.90
6822;DHT22;3449;48.728;8.968;2022-09-03T09:25:09;21.60;99.90
6822;DHT22;3449;48.728;8.968;2022-09-03T09:27:44;21.80;99.90
6822;DHT22;3449;48.728;8.968;2022-09-03T09:30:17;22.30;99.90
6822;DHT22;3449;48.728;8.968;2022-09-03T09:32:45;23.00;99.90
6822;DHT22;3449;48.728;8.968;2022-09-03T09:35:14;22.90;99.90
6822;DHT22;3449;48.728;8.968;2022-09-03T09:37:47;22.80;99.90
6822;DHT22;3449;48.728;8.968;2022-09-03T09:40:26;22.30;99.90
6822;DHT22;3449;48.728;8.968;2022-09-03T09:43:05;21.80;99.90
6822;DHT22;3449;48.728;8.968;2022-09-03T09:45:32;21.70;99.90
6822;DHT22;3449;48.728;8.968;2022-09-03T09:48:01;21.70;99.90
6822;DHT22;3449;48.728;8.968;2022-09-03T09:50:30;21.70;99.90
6822;DHT22;3449;48.728;8.968;2022-09-03T09:53:01;21.80;99.90
6822;DHT22;3449;48.728;8.968;2022-09-03T09:55:31;22.00;99.90
6822;DHT22;3449;48.728;8.968;2022-09-03T09:58:07;22.00;99.90
6822;DHT22;3449;48.728;8.968;2022-09-03T10:00:35;22.00;99.90
6822;DHT22;3449;48.728;8.968;2022-09-03T10:03:08;22.10;99.90
6822;DHT22;3449;48.728;8.968;2022-09-03T10:05:39;22.00;99.90
6822;DHT22;3449;48.728;8.968;2022-09-03T10:08:18;21.90;99.90
6822;DHT22;3449;48.728;8.968;2022-09-03T10:10:48;21.70;99.90
6822;DHT22;3449;48.728;8.968;2022-09-03T10:13:18;21.80;99.90
6822;DHT22;3449;48.728;8.968;2022-09-03T10:15:50;22.20;99.90
6822;DHT22;3449;48.728;8.968;2022-09-03T10:18:33;22.70;99.90
6822;DHT22;3449;48.728;8.968;2022-09-03T10:21:07;22.60;99.90
6822;DHT22;3449;48.728;8.968;2022-09-03T10:23:46;23.20;99.90
6822;DHT22;3449;48.728;8.968;2022-09-03T10:26:18;23.90;99.90
6822;DHT22;3449;48.728;8.968;2022-09-03T10:28:50;24.30;99.90
6822;DHT22;3449;48.728;8.968;2022-09-03T10:31:40;24.40;99.90
6822;DHT22;3449;48.728;8.968;2022-09-03T10:34:15;24.40;99.90
6822;DHT22;3449;48.728;8.968;2022-09-03T10:36:50;24.20;99.90
6822;DHT22;3449;48.728;8.968;2022-09-03T10:39:22;24.10;99.90
6822;DHT22;3449;48.728;8.968;2022-09-03T10:42:03;24.10;99.90
6822;DHT22;3449;48.728;8.968;2022-09-03T10:44:52;23.90;99.90
6822;DHT22;3449;48.728;8.968;2022-09-03T10:47:34;23.30;99.90
6822;DHT22;3449;48.728;8.968;2022-09-03T10:50:09;22.90;99.90
6822;DHT22;3449;48.728;8.968;2022-09-03T10:52:52;22.70;99.90
6822;DHT22;3449;48.728;8.968;2022-09-03T10:55:30;22.40;99.90
6822;DHT22;3449;48.728;8.968;2022-09-03T10:58:10;22.50;99.90
6822;DHT22;3449;48.728;8.968;2022-09-03T11:00:48;22.50;99.90
6822;DHT22;3449;48.728;8.968;2022-09-03T11:03:45;22.50;99.90
6822;DHT22;3449;48.728;8.968;2022-09-03T11:06:16;22.70;99.90
6822;DHT22;3449;48.728;8.968;2022-09-03T11:08:52;22.90;99.90
6822;DHT22;3449;48.728;8.968;2022-09-03T11:11:24;22.80;99.90
6822;DHT22;3449;48.728;8.968;2022-09-03T11:13:57;22.70;99.90
6822;DHT22;3449;48.728;8.968;2022-09-03T11:16:29;22.70;99.90
6822;DHT22;3449;48.728;8.968;2022-09-03T11:19:03;22.70;99.90
6822;DHT22;3449;48.728;8.968;2022-09-03T11:21:32;22.80;99.90
6822;DHT22;3449;48.728;8.968;2022-09-03T11:24:06;23.00;99.90
6822;DHT22;3449;48.728;8.968;2022-09-03T11:26:35;22.90;99.90
6822;DHT22;3449;48.728;8.968;2022-09-03T11:29:09;23.00;99.90
6822;DHT22;3449;48.728;8.968;2022-09-03T11:31:45;22.90;99.90
6822;DHT22;3449;48.728;8.968;2022-09-03T11:34:14;22.70;99.90
6822;DHT22;3449;48.728;8.968;2022-09-03T11:36:41;22.50;99.90
6822;DHT22;3449;48.728;8.968;2022-09-03T11:39:33;22.30;99.90
6822;DHT22;3449;48.728;8.968;2022-09-03T11:42:02;22.10;99.90
6822;DHT22;3449;48.728;8.968;2022-09-03T11:44:36;21.90;99.90
6822;DHT22;3449;48.728;8.968;2022-09-03T11:47:14;21.90;99.90
6822;DHT22;3449;48.728;8.968;2022-09-03T11:49:46;21.90;99.90
6822;DHT22;3449;48.728;8.968;2022-09-03T11:52:24;21.80;99.90
6822;DHT22;3449;48.728;8.968;2022-09-03T11:54:53;21.80;99.90
6822;DHT22;3449;48.728;8.968;2022-09-03T11:57:25;21.70;99.90
6822;DHT22;3449;48.728;8.968;2022-09-03T11:59:53;21.60;99.90
6822;DHT22;3449;48.728;8.968;2022-09-03T12:02:26;21.50;99.90
6822;DHT22;3449;48.728;8.968;2022-09-03T12:05:15;21.40;99.90
6822;DHT22;3449;48.728;8.968;2022-09-03T12:07:57;21.30;99.90
6822;DHT22;3449;48.728;8.968;2022-09-03T12:10:39;20.40;99.90
6822;DHT22;3449;48.728;8.968;2022-09-03T12:13:20;19.40;99.90
6822;DHT22;3449;48.728;8.968;2022-09-03T12:16:21;18.90;99.90
6822;DHT22;3449;48.728;8.968;2022-09-03T12:18:54;18.20;99.90
6822;DHT22;3449;48.728;8.968;2022-09-03T12:21:26;17.70;99.90
6822;DHT22;3449;48.728;8.968;2022-09-03T12:23:52;17.30;99.90
6822;DHT22;3449;48.728;8.968;2022-09-03T12:26:23;17.10;99.90
6822;DHT22;3449;48.728;8.968;2022-09-03T12:28:53;16.90;99.90
6822;DHT22;3449;48.728;8.968;2022-09-03T12:31:22;16.80;99.90
6822;DHT22;3449;48.728;8.968;2022-09-03T12:33:52;16.60;99.90
6822;DHT22;3449;48.728;8.968;2022-09-03T12:36:20;16.60;99.90
6822;DHT22;3449;48.728;8.968;2022-09-03T12:38:48;16.60;99.90
6822;DHT22;3449;48.728;8.968;2022-09-03T12:41:25;16.60;99.90
6822;DHT22;3449;48.728;8.968;2022-09-03T12:43:54;16.50;99.90
6822;DHT22;3449;48.728;8.968;2022-09-03T12:46:23;16.40;99.90
6822;DHT22;3449;48.728;8.968;2022-09-03T12:48:55;16.50;99.90
6822;DHT22;3449;48.728;8.968;2022-09-03T12:51:24;16.60;99.90
6822;DHT22;3449;48.728;8.968;2022-09-03T12:53:51;16.50;99.90
6822;DHT22;3449;48.728;8.968;2022-09-03T12:56:20;16.60;99.90
6822;DHT22;3449;48.728;8.968;2022-09-03T12:58:53;16.60;99.90
6822;DHT22;3449;48.728;8.968;2022-09-03T13:01:26;16.60;99.90
6822;DHT22;3449;48.728;8.968;2022-09-03T13:04:00;16.80;99.90
6822;DHT22;3449;48.728;8.968;2022-09-03T13:06:30;17.00;99.90
6822;DHT22;3449;48.728;8.968;2022-09-03T13:09:03;17.00;99.90
6822;DHT22;3449;48.728;8.968;2022-09-03T13:11:33;17.30;99.90
6822;DHT22;3449;48.728;8.968;2022-09-03T13:14:05;17.70;99.90
6822;DHT22;3449;48.728;8.968;2022-09-03T13:19:49;18.50;99.90
6822;DHT22;3449;48.728;8.968;2022-09-03T13:22:24;18.60;99.90
6822;DHT22;3449;48.728;8.968;2022-09-03T13:25:07;18.90;99.90
6822;DHT22;3449;48.728;8.968;2022-09-03T13:27:43;18.70;99.90
6822;DHT22;3449;48.728;8.968;2022-09-03T13:30:14;18.80;99.90
6822;DHT22;3449;48.728;8.968;2022-09-03T13:32:52;18.60;99.90
6822;DHT22;3449;48.728;8.968;2022-09-03T13:35:28;18.80;99.90
6822;DHT22;3449;48.728;8.968;2022-09-03T13:38:04;18.80;99.90
6822;DHT22;3449;48.728;8.968;2022-09-03T13:40:36;18.90;99.90
6822;DHT22;3449;48.728;8.968;2022-09-03T13:43:20;18.80;99.90
6822;DHT22;3449;48.728;8.968;2022-09-03T13:45:56;18.60;99.90
6822;DHT22;3449;48.728;8.968;2022-09-03T13:48:29;18.60;99.90
6822;DHT22;3449;48.728;8.968;2022-09-03T13:51:20;18.80;99.90
6822;DHT22;3449;48.728;8.968;2022-09-03T13:53:57;19.20;99.90
6822;DHT22;3449;48.728;8.968;2022-09-03T13:56:34;19.90;99.90
6822;DHT22;3449;48.728;8.968;2022-09-03T13:59:05;20.50;99.90
6822;DHT22;3449;48.728;8.968;2022-09-03T14:01:45;21.10;99.90
6822;DHT22;3449;48.728;8.968;2022-09-03T14:04:20;20.50;99.90
6822;DHT22;3449;48.728;8.968;2022-09-03T14:06:54;20.80;99.90
6822;DHT22;3449;48.728;8.968;2022-09-03T14:09:33;21.00;99.90
6822;DHT22;3449;48.728;8.968;2022-09-03T14:12:04;21.20;99.90
6822;DHT22;3449;48.728;8.968;2022-09-03T14:14:43;21.30;99.90
6822;DHT22;3449;48.728;8.968;2022-09-03T14:17:18;21.20;99.90
6822;DHT22;3449;48.728;8.968;2022-09-03T14:19:54;20.90;99.90
6822;DHT22;3449;48.728;8.968;2022-09-03T14:22:25;20.40;99.90
6822;DHT22;3449;48.728;8.968;2022-09-03T14:24:57;20.10;99.90
6822;DHT22;3449;48.728;8.968;2022-09-03T14:27:27;20.20;99.90
6822;DHT22;3449;48.728;8.968;2022-09-03T14:29:59;20.10;99.90
6822;DHT22;3449;48.728;8.968;2022-09-03T14:32:38;20.00;99.90
6822;DHT22;3449;48.728;8.968;2022-09-03T14:35:42;20.10;99.90
6822;DHT22;3449;48.728;8.968;2022-09-03T14:38:35;20.20;99.90
6822;DHT22;3449;48.728;8.968;2022-09-03T14:41:09;20.30;99.90
6822;DHT22;3449;48.728;8.968;2022-09-03T14:44:16;20.20;99.90
6822;DHT22;3449;48.728;8.968;2022-09-03T14:46:54;20.10;99.90
6822;DHT22;3449;48.728;8.968;2022-09-03T14:49:42;20.40;99.90
6822;DHT22;3449;48.728;8.968;2022-09-03T14:52:26;20.60;99.90
6822;DHT22;3449;48.728;8.968;2022-09-03T14:55:14;20.50;99.90
6822;DHT22;3449;48.728;8.968;2022-09-03T14:58:15;20.70;99.90
6822;DHT22;3449;48.728;8.968;2022-09-03T15:00:51;21.00;99.90
6822;DHT22;3449;48.728;8.968;2022-09-03T15:03:44;21.00;99.90
6822;DHT22;3449;48.728;8.968;2022-09-03T15:06:24;21.40;99.90
6822;DHT22;3449;48.728;8.968;2022-09-03T15:09:14;22.00;99.90
6822;DHT22;3449;48.728;8.968;2022-09-03T15:11:48;22.00;99.90
6822;DHT22;3449;48.728;8.968;2022-09-03T15:14:23;21.80;99.90
6822;DHT22;3449;48.728;8.968;2022-09-03T15:16:58;22.00;99.90
6822;DHT22;3449;48.728;8.968;2022-09-03T15:19:50;22.60;99.90
6822;DHT22;3449;48.728;8.968;2022-09-03T15:22:33;23.20;99.90
6822;DHT22;3449;48.728;8.968;2022-09-03T15:25:09;23.40;99.90
6822;DHT22;3449;48.728;8.968;2022-09-03T15:27:49;24.30;99.90
6822;DHT22;3449;48.728;8.968;2022-09-03T15:30:20;24.90;99.90
6822;DHT22;3449;48.728;8.968;2022-09-03T15:32:56;25.20;99.90
6822;DHT22;3449;48.728;8.968;2022-09-03T15:35:35;24.80;99.90
6822;DHT22;3449;48.728;8.968;2022-09-03T15:38:08;24.00;99.90
6822;DHT22;3449;48.728;8.968;2022-09-03T15:40:41;22.50;99.90
6822;DHT22;3449;48.728;8.968;2022-09-03T15:43:17;22.10;99.90
6822;DHT22;3449;48.728;8.968;2022-09-03T15:45:51;22.20;99.90
6822;DHT22;3449;48.728;8.968;2022-09-03T15:48:28;22.70;99.90
6822;DHT22;3449;48.728;8.968;2022-09-03T15:51:07;23.80;99.90
6822;DHT22;3449;48.728;8.968;2022-09-03T15:53:40;24.00;99.90
6822;DHT22;3449;48.728;8.968;2022-09-03T15:56:17;23.50;99.90
6822;DHT22;3449;48.728;8.968;2022-09-03T15:58:51;23.00;99.90
6822;DHT22;3449;48.728;8.968;2022-09-03T16:01:29;22.40;99.90
6822;DHT22;3449;48.728;8.968;2022-09-03T16:04:02;21.90;99.90
6822;DHT22;3449;48.728;8.968;2022-09-03T16:06:42;21.70;99.90
6822;DHT22;3449;48.728;8.968;2022-09-03T16:12:13;21.30;99.90
6822;DHT22;3449;48.728;8.968;2022-09-03T16:14:45;21.20;99.90
6822;DHT22;3449;48.728;8.968;2022-09-03T16:17:22;21.10;99.90
6822;DHT22;3449;48.728;8.968;2022-09-03T16:19:55;21.00;99.90
6822;DHT22;3449;48.728;8.968;2022-09-03T16:22:26;20.90;99.90
6822;DHT22;3449;48.728;8.968;2022-09-03T16:25:00;20.70;99.90
6822;DHT22;3449;48.728;8.968;2022-09-03T16:27:32;20.60;99.90
6822;DHT22;3449;48.728;8.968;2022-09-03T16:30:07;20.50;99.90
6822;DHT22;3449;48.728;8.968;2022-09-03T16:32:48;20.40;99.90
6822;DHT22;3449;48.728;8.968;2022-09-03T16:35:30;20.40;99.90
6822;DHT22;3449;48.728;8.968;2022-09-03T16:38:08;20.40;99.90
6822;DHT22;3449;48.728;8.968;2022-09-03T16:40:45;20.40;99.90
6822;DHT22;3449;48.728;8.968;2022-09-03T16:43:23;20.50;99.90
6822;DHT22;3449;48.728;8.968;2022-09-03T16:46:00;20.70;99.90